Time;durP1;ratioP1;P1;durP2;ratioP2;P2;SDS_P1;SDS_P2;PMS_P1;PMS_P2;Temp;Humidity;BMP_temperature;BMP_pressure;BME280_temperature;BME280_humidity;BME280_pressure;Samples;Min_cycle;Max_cycle;Signal;HPM_P1;HPM_P2
2022/11/05 00:10:33;;;;;;;0.10;0.10;;;10.70;99.90;;;;;;5062655;28;20215;-80
2022/11/05 00:18:28;;;;;;;0.00;0.00;;;10.80;99.90;;;;;;5061395;28;20350;-81
2022/11/05 00:20:54;;;;;;;0.10;0.10;;;10.80;99.90;;;;;;5059512;28;20748;-81
2022/11/05 00:26:06;;;;;;;0.10;0.10;;;10.80;99.90;;;;;;5059497;28;20192;-81
2022/11/05 00:28:33;;;;;;;0.10;0.10;;;10.90;99.90;;;;;;5060075;28;20654;-81
2022/11/05 00:31:01;;;;;;;0.10;0.10;;;10.80;99.90;;;;;;5057185;28;20731;-81
2022/11/05 00:33:27;;;;;;;0.10;0.10;;;10.80;99.90;;;;;;5058839;28;20681;-81
2022/11/05 00:35:52;;;;;;;0.00;0.00;;;10.80;99.90;;;;;;5058713;28;20212;-80
2022/11/05 00:38:18;;;;;;;0.10;0.10;;;10.80;99.90;;;;;;5059372;28;20185;-81
2022/11/05 00:40:44;;;;;;;0.10;0.10;;;10.80;99.90;;;;;;5059694;28;20188;-81
2022/11/05 00:45:54;;;;;;;0.10;0.10;;;10.80;99.90;;;;;;5062364;28;20260;-80
2022/11/05 00:51:12;;;;;;;0.10;0.10;;;10.90;99.90;;;;;;5051800;28;20232;-80
2022/11/05 00:53:37;;;;;;;0.10;0.10;;;10.90;99.90;;;;;;5063561;28;20251;-81
2022/11/05 00:56:03;;;;;;;0.00;0.00;;;10.70;99.90;;;;;;5060192;28;20557;-80
2022/11/05 00:58:29;;;;;;;0.10;0.10;;;10.80;99.90;;;;;;5063522;28;20753;-81
2022/11/05 01:00:56;;;;;;;0.10;0.10;;;10.70;99.90;;;;;;5060363;28;20173;-80
2022/11/05 01:03:25;;;;;;;0.10;0.10;;;10.80;99.90;;;;;;5063071;28;20192;-80
2022/11/05 01:05:53;;;;;;;0.10;0.10;;;10.90;99.90;;;;;;5062090;28;20690;-81
2022/11/05 01:08:21;;;;;;;0.10;0.10;;;11.00;99.90;;;;;;5061950;28;21167;-81
2022/11/05 01:10:49;;;;;;;0.10;0.10;;;11.00;99.90;;;;;;5062123;28;20189;-81
2022/11/05 01:13:21;;;;;;;0.10;0.10;;;10.80;99.90;;;;;;5063808;28;20211;-81
2022/11/05 01:15:49;;;;;;;0.10;0.10;;;10.90;99.90;;;;;;5061742;28;20184;-81
2022/11/05 01:18:15;;;;;;;0.10;0.10;;;10.90;99.90;;;;;;5063871;28;20178;-80
2022/11/05 01:20:41;;;;;;;0.10;0.10;;;10.90;99.90;;;;;;5064205;28;20176;-80
2022/11/05 01:23:07;;;;;;;0.07;0.07;;;11.00;99.90;;;;;;5063089;28;20192;-81
2022/11/05 01:25:32;;;;;;;0.10;0.10;;;11.00;99.90;;;;;;5064045;28;20215;-80
2022/11/05 01:27:58;;;;;;;0.00;0.00;;;11.00;99.90;;;;;;5064201;28;20223;-80
2022/11/05 01:30:24;;;;;;;0.10;0.10;;;11.00;99.90;;;;;;5064485;28;20200;-80
2022/11/05 01:32:49;;;;;;;0.00;0.00;;;11.00;99.90;;;;;;5063684;28;20241;-80
2022/11/05 01:35:16;;;;;;;0.10;0.10;;;10.90;99.90;;;;;;5063228;28;20629;-81
2022/11/05 01:37:42;;;;;;;0.10;0.10;;;11.00;99.90;;;;;;5064118;28;20177;-80
2022/11/05 01:40:12;;;;;;;0.10;0.10;;;11.00;99.90;;;;;;5062583;28;20677;-80
2022/11/05 01:42:37;;;;;;;0.10;0.10;;;11.00;99.90;;;;;;5065033;28;20196;-80
2022/11/05 01:45:15;;;;;;;0.10;0.10;;;10.90;99.90;;;;;;5070509;28;20216;-80
2022/11/05 01:48:03;;;;;;;0.10;0.10;;;10.90;99.90;;;;;;5062726;28;20181;-80
2022/11/05 01:50:41;;;;;;;0.10;0.10;;;10.90;99.90;;;;;;5061092;28;20316;-81
2022/11/05 01:53:35;;;;;;;0.10;0.10;;;10.90;99.90;;;;;;5060401;28;20351;-80
2022/11/05 01:56:06;;;;;;;0.10;0.10;;;10.80;99.90;;;;;;5060542;28;20212;-81
2022/11/05 01:58:40;;;;;;;0.10;0.10;;;10.70;99.90;;;;;;5061138;28;20176;-81
2022/11/05 02:01:05;;;;;;;0.10;0.10;;;10.80;99.90;;;;;;5062195;28;20174;-81
2022/11/05 02:03:31;;;;;;;0.30;0.30;;;10.80;99.90;;;;;;5062005;28;20525;-80
2022/11/05 02:05:59;;;;;;;0.00;0.00;;;10.90;99.90;;;;;;5062302;28;20200;-80
2022/11/05 02:09:05;;;;;;;0.10;0.10;;;10.80;99.90;;;;;;5061518;28;20860;-80
2022/11/05 02:11:31;;;;;;;0.10;0.10;;;10.90;99.90;;;;;;5060978;28;20283;-81
2022/11/05 02:13:57;;;;;;;0.10;0.10;;;10.90;99.90;;;;;;5077034;28;20221;-81
2022/11/05 02:16:45;;;;;;;0.10;0.10;;;10.90;99.90;;;;;;5060954;28;20192;-81
2022/11/05 02:19:53;;;;;;;0.10;0.10;;;11.00;99.90;;;;;;5070038;28;20183;-81
2022/11/05 02:22:35;;;;;;;0.10;0.10;;;11.00;99.90;;;;;;5053142;28;20200;-81
2022/11/05 02:25:25;;;;;;;0.10;0.10;;;11.00;99.90;;;;;;5069876;28;20204;-81
2022/11/05 02:28:02;;;;;;;0.00;0.00;;;11.00;99.90;;;;;;5054055;28;20192;-81
2022/11/05 02:30:44;;;;;;;0.10;0.10;;;11.00;99.90;;;;;;5067791;28;20204;-81
2022/11/05 02:33:32;;;;;;;0.10;0.10;;;10.90;99.90;;;;;;5070132;28;20197;-81
2022/11/05 02:36:07;;;;;;;0.10;0.10;;;11.00;99.90;;;;;;5061394;28;20204;-81
2022/11/05 02:38:39;;;;;;;0.10;0.10;;;11.00;99.90;;;;;;5061807;28;20744;-81
2022/11/05 02:41:21;;;;;;;0.10;0.10;;;11.00;99.90;;;;;;5069875;28;20542;-81
2022/11/05 02:44:10;;;;;;;0.10;0.10;;;11.10;99.90;;;;;;5061862;28;20238;-80
2022/11/05 02:46:56;;;;;;;0.10;0.10;;;11.00;99.90;;;;;;5075974;28;20275;-80
2022/11/05 02:49:21;;;;;;;0.10;0.10;;;11.10;99.90;;;;;;5061470;28;20186;-80
2022/11/05 02:51:56;;;;;;;0.10;0.10;;;11.00;99.90;;;;;;5068402;28;20215;-81
2022/11/05 02:54:28;;;;;;;0.10;0.10;;;10.70;99.90;;;;;;5069091;28;20236;-80
2022/11/05 02:56:56;;;;;;;0.10;0.10;;;10.80;99.90;;;;;;5061183;28;20743;-80
2022/11/05 02:59:22;;;;;;;0.10;0.10;;;10.80;99.90;;;;;;5061666;28;20187;-81
2022/11/05 03:01:49;;;;;;;0.10;0.10;;;10.50;99.90;;;;;;5058035;28;20674;-80
2022/11/05 03:04:18;;;;;;;0.10;0.10;;;10.50;99.90;;;;;;5059336;28;20613;-80
2022/11/05 03:07:05;;;;;;;0.10;0.10;;;10.60;99.90;;;;;;5061734;28;20180;-80
2022/11/05 03:09:58;;;;;;;0.10;0.10;;;10.60;99.90;;;;;;5070227;28;20192;-81
2022/11/05 03:12:43;;;;;;;0.10;0.10;;;10.60;99.90;;;;;;5070172;28;20265;-81
2022/11/05 03:15:53;;;;;;;0.10;0.10;;;10.50;99.90;;;;;;5066949;28;20212;-80
2022/11/05 03:18:44;;;;;;;0.10;0.10;;;10.40;99.90;;;;;;5004702;28;20206;-81
2022/11/05 03:21:27;;;;;;;0.10;0.10;;;10.30;99.90;;;;;;5076084;28;20242;-80
2022/11/05 03:24:06;;;;;;;0.10;0.10;;;10.20;99.90;;;;;;5069298;28;21152;-80
2022/11/05 03:26:39;;;;;;;0.10;0.10;;;10.10;99.90;;;;;;5050718;28;20187;-81
2022/11/05 03:29:11;;;;;;;0.00;0.00;;;10.00;99.90;;;;;;5058767;28;20185;-80
2022/11/05 03:31:39;;;;;;;0.10;0.10;;;10.00;99.90;;;;;;5059267;28;20230;-81
2022/11/05 03:34:07;;;;;;;0.10;0.10;;;10.00;99.90;;;;;;5057369;28;20222;-81
2022/11/05 03:36:40;;;;;;;0.00;0.00;;;9.90;99.90;;;;;;5060892;28;20242;-81
2022/11/05 03:39:09;;;;;;;0.10;0.10;;;9.80;99.90;;;;;;5059063;28;20586;-81
2022/11/05 03:41:41;;;;;;;0.10;0.10;;;9.80;99.90;;;;;;5057625;28;20204;-80
2022/11/05 03:44:10;;;;;;;0.00;0.00;;;9.80;99.90;;;;;;5059443;28;20215;-81
2022/11/05 03:46:43;;;;;;;0.07;0.07;;;9.70;99.90;;;;;;5060888;28;20221;-80
2022/11/05 03:49:12;;;;;;;0.10;0.10;;;9.70;99.90;;;;;;5070871;28;20186;-80
2022/11/05 03:51:47;;;;;;;0.10;0.10;;;9.80;99.90;;;;;;5060789;28;20186;-81
2022/11/05 03:54:13;;;;;;;0.10;0.10;;;9.80;99.90;;;;;;5061402;28;20220;-80
2022/11/05 03:56:53;;;;;;;0.10;0.10;;;9.80;99.90;;;;;;5061735;28;20177;-80
2022/11/05 03:59:20;;;;;;;0.10;0.10;;;9.90;99.90;;;;;;5061637;28;20674;-81
2022/11/05 04:01:46;;;;;;;0.10;0.10;;;10.00;99.90;;;;;;5060945;28;20192;-81
2022/11/05 04:04:12;;;;;;;0.10;0.10;;;10.00;99.90;;;;;;5059987;28;20211;-80
2022/11/05 04:14:52;;;;;;;1.10;1.10;;;9.80;99.90;;;;;;5056690;28;20239;-80
2022/11/05 04:17:18;;;;;;;0.10;0.10;;;9.90;99.90;;;;;;5062636;28;20190;-81
2022/11/05 04:25:19;;;;;;;0.10;0.10;;;9.90;99.90;;;;;;5061759;28;20225;-81
2022/11/05 04:27:45;;;;;;;0.10;0.10;;;9.90;99.90;;;;;;5062900;28;20280;-81
2022/11/05 04:30:18;;;;;;;0.10;0.10;;;9.80;99.90;;;;;;5063199;28;20289;-81
2022/11/05 04:32:59;;;;;;;0.10;0.10;;;9.80;99.90;;;;;;5061154;28;20200;-80
2022/11/05 04:35:27;;;;;;;0.10;0.10;;;9.80;99.90;;;;;;5069829;28;20691;-81
2022/11/05 04:37:52;;;;;;;0.10;0.10;;;9.80;99.90;;;;;;5061967;28;20186;-81
2022/11/05 04:40:18;;;;;;;0.10;0.10;;;9.70;99.90;;;;;;5077433;28;20182;-81
2022/11/05 04:42:43;;;;;;;0.10;0.10;;;9.60;99.90;;;;;;5063149;28;20184;-81
2022/11/05 04:45:09;;;;;;;0.10;0.10;;;9.60;99.90;;;;;;5062341;28;20200;-81
2022/11/05 04:47:35;;;;;;;0.10;0.10;;;9.60;99.90;;;;;;5064577;28;20192;-81
2022/11/05 04:50:00;;;;;;;0.10;0.10;;;9.50;99.90;;;;;;5060725;28;20207;-80
2022/11/05 04:52:26;;;;;;;0.10;0.10;;;9.50;99.90;;;;;;5059504;28;20214;-81
2022/11/05 04:54:51;;;;;;;0.10;0.10;;;9.50;99.90;;;;;;5060881;28;20226;-81
2022/11/05 04:57:17;;;;;;;0.00;0.00;;;9.60;99.90;;;;;;5059412;28;20220;-81
2022/11/05 04:59:42;;;;;;;0.10;0.10;;;9.60;99.90;;;;;;5061880;28;20222;-80
2022/11/05 05:02:08;;;;;;;0.10;0.10;;;9.60;99.90;;;;;;5063741;28;20188;-81
2022/11/05 05:04:33;;;;;;;0.10;0.10;;;9.50;99.90;;;;;;5061104;28;20214;-80
2022/11/05 05:06:59;;;;;;;0.10;0.10;;;9.60;99.90;;;;;;5063878;28;20234;-80
2022/11/05 05:09:24;;;;;;;0.10;0.10;;;9.70;99.90;;;;;;5063897;28;20282;-80
2022/11/05 05:11:50;;;;;;;0.10;0.10;;;9.70;99.90;;;;;;5077010;28;20209;-81
2022/11/05 05:14:16;;;;;;;0.10;0.10;;;9.60;99.90;;;;;;5061380;28;21179;-81
2022/11/05 05:16:41;;;;;;;0.10;0.10;;;9.60;99.90;;;;;;5065566;28;20671;-80
2022/11/05 05:19:07;;;;;;;0.10;0.10;;;9.50;99.90;;;;;;5062208;28;20192;-81
2022/11/05 05:21:38;;;;;;;0.10;0.10;;;9.50;99.90;;;;;;5060771;28;20282;-81
2022/11/05 05:24:12;;;;;;;0.10;0.10;;;9.60;99.90;;;;;;5060773;28;20212;-80
2022/11/05 05:26:41;;;;;;;0.10;0.10;;;9.60;99.90;;;;;;5060189;28;20272;-81
2022/11/05 05:29:08;;;;;;;0.10;0.10;;;9.70;99.90;;;;;;5058279;28;20191;-81
2022/11/05 05:31:34;;;;;;;0.10;0.10;;;9.70;99.90;;;;;;5062680;28;20700;-81
2022/11/05 05:34:00;;;;;;;0.00;0.00;;;9.80;99.90;;;;;;5063163;28;20684;-80
2022/11/05 05:36:25;;;;;;;0.00;0.00;;;9.70;99.90;;;;;;5060731;28;20207;-81
2022/11/05 05:38:51;;;;;;;0.10;0.10;;;9.70;99.90;;;;;;5061535;28;20186;-81
2022/11/05 05:41:17;;;;;;;0.10;0.10;;;9.70;99.90;;;;;;5061222;28;20681;-81
2022/11/05 05:43:42;;;;;;;0.10;0.10;;;9.60;99.90;;;;;;5061578;28;20239;-81
2022/11/05 05:46:11;;;;;;;0.10;0.10;;;9.70;99.90;;;;;;5060162;28;20200;-81
2022/11/05 05:48:36;;;;;;;0.10;0.10;;;9.70;99.90;;;;;;5058905;28;20286;-81
2022/11/05 05:51:03;;;;;;;0.00;0.00;;;9.80;99.90;;;;;;5062935;28;20239;-81
2022/11/05 05:53:30;;;;;;;0.00;0.00;;;9.80;99.90;;;;;;5056475;28;20298;-81
2022/11/05 05:55:56;;;;;;;0.10;0.10;;;9.80;99.90;;;;;;5061447;28;20197;-80
2022/11/05 05:58:25;;;;;;;0.10;0.10;;;9.80;99.90;;;;;;5056965;28;20239;-81
2022/11/05 06:00:51;;;;;;;0.10;0.10;;;9.80;99.90;;;;;;5057464;28;20480;-80
2022/11/05 06:03:17;;;;;;;0.00;0.00;;;9.90;99.90;;;;;;5062038;28;20203;-80
2022/11/05 06:05:42;;;;;;;0.10;0.10;;;9.80;99.90;;;;;;5060454;28;20266;-80
2022/11/05 06:08:08;;;;;;;0.10;0.10;;;9.80;99.90;;;;;;5060069;28;20198;-80
2022/11/05 06:10:33;;;;;;;0.30;0.30;;;9.80;99.90;;;;;;5061332;28;20226;-80
2022/11/05 06:12:59;;;;;;;0.00;0.00;;;9.80;99.90;;;;;;5060839;28;20833;-79
2022/11/05 06:15:25;;;;;;;0.10;0.10;;;9.80;99.90;;;;;;5060513;28;20205;-80
2022/11/05 06:17:50;;;;;;;0.10;0.10;;;9.70;99.90;;;;;;5076856;28;20188;-80
2022/11/05 06:20:16;;;;;;;0.10;0.10;;;9.60;99.90;;;;;;5058576;28;21072;-81
2022/11/05 06:22:42;;;;;;;0.03;0.03;;;9.50;99.90;;;;;;5061456;28;20191;-80
2022/11/05 06:25:08;;;;;;;0.10;0.10;;;9.70;99.90;;;;;;5060340;28;20207;-80
2022/11/05 06:27:35;;;;;;;0.00;0.00;;;9.80;99.90;;;;;;5059061;28;20186;-81
2022/11/05 06:30:01;;;;;;;0.10;0.10;;;9.80;99.90;;;;;;5058786;28;20242;-80
2022/11/05 06:32:27;;;;;;;0.10;0.10;;;9.80;99.90;;;;;;5059355;28;20521;-81
2022/11/05 06:34:53;;;;;;;0.10;0.10;;;9.90;99.90;;;;;;5059619;28;20261;-81
2022/11/05 06:37:18;;;;;;;0.10;0.10;;;9.90;99.90;;;;;;5062534;28;20184;-80
2022/11/05 06:39:44;;;;;;;0.10;0.10;;;10.00;99.90;;;;;;5060948;28;20181;-79
2022/11/05 06:42:09;;;;;;;0.10;0.10;;;10.00;99.90;;;;;;5060748;28;20184;-80
2022/11/05 06:44:35;;;;;;;0.10;0.10;;;10.00;99.90;;;;;;5059403;28;20207;-80
2022/11/05 06:47:00;;;;;;;0.10;0.10;;;9.90;99.90;;;;;;5060000;28;20207;-81
2022/11/05 06:49:26;;;;;;;0.10;0.10;;;9.90;99.90;;;;;;5059325;28;20199;-80
2022/11/05 06:51:52;;;;;;;0.00;0.00;;;9.70;99.90;;;;;;5058721;28;20183;-80
2022/11/05 06:54:17;;;;;;;0.10;0.10;;;9.80;99.90;;;;;;5059665;28;20228;-80
2022/11/05 06:56:43;;;;;;;0.07;0.07;;;9.80;99.90;;;;;;5061240;28;20568;-81
2022/11/05 06:59:08;;;;;;;0.10;0.10;;;10.00;99.90;;;;;;5060932;28;20276;-80
2022/11/05 07:01:34;;;;;;;0.10;0.10;;;10.00;99.90;;;;;;5059079;28;20183;-81
2022/11/05 07:04:00;;;;;;;0.10;0.10;;;10.10;99.90;;;;;;5059395;28;21019;-80
2022/11/05 07:06:26;;;;;;;0.00;0.00;;;10.10;99.90;;;;;;5058216;28;20294;-81
2022/11/05 07:08:52;;;;;;;0.10;0.10;;;10.10;99.90;;;;;;5062338;28;20192;-81
2022/11/05 07:11:18;;;;;;;0.10;0.10;;;10.10;99.90;;;;;;5059148;28;20559;-80
2022/11/05 07:13:43;;;;;;;0.10;0.10;;;10.10;99.90;;;;;;5059730;28;20208;-80
2022/11/05 07:16:09;;;;;;;0.10;0.10;;;10.20;99.90;;;;;;5061125;28;20659;-80
2022/11/05 07:18:35;;;;;;;0.10;0.10;;;9.90;99.90;;;;;;5060671;28;20669;-80
2022/11/05 07:21:01;;;;;;;0.10;0.10;;;9.90;99.90;;;;;;5061534;28;21116;-80
2022/11/05 07:23:26;;;;;;;0.10;0.10;;;10.00;99.90;;;;;;5061727;28;20665;-80
2022/11/05 07:25:52;;;;;;;0.10;0.10;;;9.90;99.90;;;;;;5061228;28;20186;-80
2022/11/05 07:28:17;;;;;;;0.10;0.10;;;10.10;99.90;;;;;;5060739;28;20243;-80
2022/11/05 07:30:43;;;;;;;0.10;0.10;;;10.10;99.90;;;;;;5061646;28;20301;-81
2022/11/05 07:33:08;;;;;;;0.10;0.10;;;10.10;99.90;;;;;;5058279;28;20239;-81
2022/11/05 07:35:34;;;;;;;0.10;0.10;;;10.20;99.90;;;;;;5067405;28;20214;-82
2022/11/05 07:38:00;;;;;;;0.10;0.10;;;10.20;99.90;;;;;;5057788;28;21160;-83
2022/11/05 07:40:27;;;;;;;0.10;0.10;;;10.30;99.90;;;;;;5065920;28;20553;-83
2022/11/05 07:42:57;;;;;;;0.10;0.10;;;10.20;99.90;;;;;;5059739;28;20188;-82
2022/11/05 07:45:24;;;;;;;0.10;0.10;;;10.30;99.90;;;;;;5060123;28;20733;-83
2022/11/05 07:47:51;;;;;;;0.10;0.10;;;10.40;99.90;;;;;;5066985;28;20194;-81
2022/11/05 07:50:19;;;;;;;0.07;0.07;;;10.50;99.90;;;;;;5052883;28;20193;-80
2022/11/05 07:52:46;;;;;;;0.10;0.10;;;10.60;99.90;;;;;;5062354;28;20285;-80
2022/11/05 07:55:12;;;;;;;0.10;0.10;;;10.50;99.90;;;;;;5062306;28;20211;-80
2022/11/05 07:57:46;;;;;;;0.10;0.10;;;10.40;99.90;;;;;;5063355;28;20372;-82
2022/11/05 08:00:15;;;;;;;0.10;0.10;;;10.60;99.90;;;;;;5064960;28;20183;-82
2022/11/05 08:02:41;;;;;;;0.10;0.10;;;10.70;99.90;;;;;;5078861;28;20203;-81
2022/11/05 08:05:08;;;;;;;0.10;0.10;;;10.70;99.90;;;;;;5061954;28;20208;-81
2022/11/05 08:07:33;;;;;;;0.00;0.00;;;10.90;99.90;;;;;;5064352;28;20197;-80
2022/11/05 08:09:59;;;;;;;0.10;0.10;;;10.80;99.90;;;;;;5062116;28;20188;-80
2022/11/05 08:12:25;;;;;;;0.10;0.10;;;10.80;99.90;;;;;;5063826;28;20259;-80
2022/11/05 08:14:50;;;;;;;0.10;0.10;;;11.00;99.90;;;;;;5061915;28;20208;-80
2022/11/05 08:17:16;;;;;;;0.10;0.10;;;11.00;99.90;;;;;;5063432;28;20187;-81
2022/11/05 08:19:42;;;;;;;0.10;0.10;;;11.00;99.90;;;;;;5064010;28;20287;-80
2022/11/05 08:22:08;;;;;;;0.10;0.10;;;11.00;99.90;;;;;;5063057;28;20777;-80
2022/11/05 08:24:33;;;;;;;0.10;0.10;;;11.00;99.90;;;;;;5061661;28;20867;-80
2022/11/05 08:26:59;;;;;;;0.10;0.10;;;10.90;99.90;;;;;;5063412;28;20196;-80
2022/11/05 08:29:24;;;;;;;0.10;0.10;;;11.00;99.90;;;;;;5071548;28;20197;-81
2022/11/05 08:31:50;;;;;;;0.10;0.10;;;11.00;99.90;;;;;;5063370;28;20204;-80
2022/11/05 08:34:15;;;;;;;0.10;0.10;;;10.90;99.90;;;;;;5063254;28;20213;-81
2022/11/05 08:36:45;;;;;;;0.10;0.10;;;10.80;99.90;;;;;;5062999;28;20184;-80
2022/11/05 08:39:11;;;;;;;0.10;0.10;;;10.80;99.90;;;;;;5062741;28;20186;-80
2022/11/05 08:41:37;;;;;;;0.10;0.10;;;10.80;99.90;;;;;;5058257;28;20177;-82
2022/11/05 08:44:02;;;;;;;0.10;0.10;;;10.80;99.90;;;;;;5064169;28;20698;-80
2022/11/05 08:46:28;;;;;;;0.10;0.10;;;10.90;99.90;;;;;;5057268;28;20238;-81
2022/11/05 08:48:53;;;;;;;0.10;0.10;;;10.80;99.90;;;;;;5062645;28;20192;-82
2022/11/05 08:51:19;;;;;;;0.10;0.10;;;10.80;99.90;;;;;;5063028;28;20638;-82
2022/11/05 08:53:44;;;;;;;0.10;0.10;;;10.80;99.90;;;;;;5065643;28;20216;-82
2022/11/05 08:56:10;;;;;;;0.10;0.10;;;10.70;99.90;;;;;;5062986;28;20192;-82
2022/11/05 08:58:36;;;;;;;0.10;0.10;;;10.70;99.90;;;;;;5064479;28;20527;-82
2022/11/05 09:01:03;;;;;;;0.10;0.10;;;10.70;99.90;;;;;;5066950;28;20684;-81
2022/11/05 09:03:29;;;;;;;0.10;0.10;;;10.80;99.90;;;;;;5064373;28;20189;-82
2022/11/05 09:05:54;;;;;;;0.10;0.10;;;10.80;99.90;;;;;;5062963;28;20200;-81
2022/11/05 09:08:20;;;;;;;0.10;0.10;;;10.80;99.90;;;;;;5064460;28;20191;-81
2022/11/05 09:10:48;;;;;;;0.10;0.10;;;10.70;99.90;;;;;;5062260;28;20238;-81
2022/11/05 09:13:14;;;;;;;0.10;0.10;;;10.90;99.90;;;;;;5073511;28;20226;-81
2022/11/05 09:15:40;;;;;;;0.10;0.10;;;11.00;99.90;;;;;;5063061;28;20209;-81
2022/11/05 09:18:05;;;;;;;0.10;0.10;;;11.10;99.90;;;;;;5063556;28;20179;-82
2022/11/05 09:20:32;;;;;;;0.10;0.10;;;11.10;99.90;;;;;;5065962;28;20185;-81
2022/11/05 09:22:58;;;;;;;0.10;0.10;;;11.20;99.90;;;;;;5062933;28;20665;-82
2022/11/05 09:25:25;;;;;;;0.00;0.00;;;11.20;99.90;;;;;;5062545;28;20217;-82
2022/11/05 09:27:50;;;;;;;0.10;0.10;;;11.20;99.90;;;;;;5064747;28;20176;-82
2022/11/05 09:30:16;;;;;;;0.00;0.00;;;11.20;99.90;;;;;;5064188;28;20184;-82
2022/11/05 09:32:41;;;;;;;0.10;0.10;;;11.30;99.90;;;;;;5063773;28;20250;-80
2022/11/05 09:35:08;;;;;;;0.10;0.10;;;11.30;99.90;;;;;;5062977;28;20215;-81
2022/11/05 09:37:35;;;;;;;0.10;0.10;;;11.50;99.90;;;;;;5062838;28;20180;-82
2022/11/05 09:40:00;;;;;;;0.10;0.10;;;11.60;99.90;;;;;;5062495;28;20181;-81
2022/11/05 09:42:39;;;;;;;0.10;0.10;;;11.90;99.90;;;;;;5063876;28;20177;-81
2022/11/05 09:45:12;;;;;;;0.10;0.10;;;12.00;99.90;;;;;;5064456;28;20197;-82
2022/11/05 09:47:46;;;;;;;0.10;0.10;;;12.20;99.90;;;;;;5058867;28;20189;-81
2022/11/05 09:50:18;;;;;;;0.10;0.10;;;12.10;99.90;;;;;;5060005;28;20172;-81
2022/11/05 09:52:44;;;;;;;0.10;0.10;;;12.10;99.90;;;;;;5059052;28;20217;-82
2022/11/05 09:55:38;;;;;;;0.10;0.10;;;12.30;99.90;;;;;;5065156;28;20287;-82
2022/11/05 09:58:28;;;;;;;0.10;0.10;;;12.10;99.90;;;;;;5060000;28;21026;-81
2022/11/05 10:00:55;;;;;;;0.10;0.10;;;12.20;99.90;;;;;;5047862;28;20185;-82
2022/11/05 10:03:23;;;;;;;0.10;0.10;;;12.30;99.90;;;;;;5064076;28;20213;-81
2022/11/05 10:05:51;;;;;;;0.10;0.10;;;12.50;99.90;;;;;;5062135;28;20174;-82
2022/11/05 10:08:24;;;;;;;0.10;0.10;;;12.80;99.90;;;;;;5063963;28;20209;-81
2022/11/05 10:10:54;;;;;;;0.10;0.10;;;13.00;99.90;;;;;;5064139;28;20184;-81
2022/11/05 10:13:44;;;;;;;0.10;0.10;;;13.10;99.90;;;;;;5062848;28;20209;-81
2022/11/05 10:16:39;;;;;;;0.10;0.10;;;13.20;99.90;;;;;;5062114;28;20635;-82
2022/11/05 10:19:15;;;;;;;0.10;0.10;;;13.40;99.90;;;;;;5060184;28;20192;-82
2022/11/05 10:21:42;;;;;;;0.10;0.10;;;13.50;99.90;;;;;;5064619;28;21118;-82
2022/11/05 10:24:15;;;;;;;0.10;0.10;;;13.70;99.90;;;;;;5063629;28;20201;-82
2022/11/05 10:26:42;;;;;;;0.10;0.10;;;13.80;99.90;;;;;;5063089;28;20239;-81
2022/11/05 10:29:11;;;;;;;0.10;0.10;;;14.00;99.90;;;;;;5062246;28;20182;-82
2022/11/05 10:31:37;;;;;;;0.10;0.10;;;14.10;99.90;;;;;;5059248;28;20189;-82
2022/11/05 10:34:05;;;;;;;0.10;0.10;;;14.20;99.90;;;;;;5061176;28;20800;-81
2022/11/05 10:36:34;;;;;;;0.10;0.10;;;14.30;99.90;;;;;;5058586;28;20269;-82
2022/11/05 10:39:12;;;;;;;0.10;0.10;;;14.30;99.90;;;;;;5060852;28;20716;-81
2022/11/05 10:41:53;;;;;;;0.10;0.10;;;14.50;99.90;;;;;;5056604;28;20209;-82
2022/11/05 10:44:24;;;;;;;0.10;0.10;;;14.60;99.90;;;;;;5068033;28;20198;-81
2022/11/05 10:47:07;;;;;;;0.10;0.10;;;14.70;99.90;;;;;;5070842;28;20197;-81
2022/11/05 10:49:44;;;;;;;0.10;0.10;;;14.90;99.90;;;;;;5056352;28;20193;-81
2022/11/05 10:52:35;;;;;;;0.10;0.10;;;15.00;99.90;;;;;;5060679;28;20182;-81
2022/11/05 10:55:09;;;;;;;0.00;0.00;;;15.30;99.90;;;;;;5057811;28;20239;-81
2022/11/05 10:57:38;;;;;;;0.10;0.10;;;15.00;99.90;;;;;;5060577;28;20188;-81
2022/11/05 11:00:15;;;;;;;0.10;0.10;;;14.90;99.90;;;;;;5058438;28;20181;-81
2022/11/05 11:02:43;;;;;;;0.10;0.10;;;15.10;99.90;;;;;;5071465;28;20188;-81
2022/11/05 11:05:27;;;;;;;0.10;0.10;;;15.40;99.90;;;;;;5055520;28;20210;-81
2022/11/05 11:08:10;;;;;;;0.10;0.10;;;15.80;99.90;;;;;;5076267;28;20214;-81
2022/11/05 11:10:41;;;;;;;0.10;0.10;;;15.90;99.90;;;;;;5059164;28;20243;-81
2022/11/05 11:13:21;;;;;;;0.10;0.10;;;16.40;99.90;;;;;;5061626;28;20374;-81
2022/11/05 11:15:49;;;;;;;0.10;0.10;;;16.80;99.90;;;;;;5074576;28;20947;-81
2022/11/05 11:18:35;;;;;;;0.10;0.10;;;17.10;99.90;;;;;;5059140;28;20188;-82
2022/11/05 11:21:22;;;;;;;0.10;0.10;;;17.30;99.90;;;;;;5069195;28;20184;-82
2022/11/05 11:24:05;;;;;;;0.10;0.10;;;17.30;99.90;;;;;;5059852;28;20212;-82
2022/11/05 11:26:38;;;;;;;0.10;0.10;;;17.00;99.90;;;;;;5057146;28;20189;-82
2022/11/05 11:29:21;;;;;;;0.10;0.10;;;17.00;99.90;;;;;;5056809;28;20242;-81
2022/11/05 11:31:47;;;;;;;0.10;0.10;;;17.20;99.90;;;;;;5058483;28;20446;-81
2022/11/05 11:34:27;;;;;;;0.10;0.10;;;16.80;99.90;;;;;;5056461;28;20212;-81
2022/11/05 11:37:04;;;;;;;0.10;0.10;;;17.20;99.90;;;;;;5058301;28;20212;-82
2022/11/05 11:39:31;;;;;;;0.10;0.10;;;16.90;99.90;;;;;;5057631;28;20195;-81
2022/11/05 11:42:07;;;;;;;0.10;0.10;;;17.00;99.90;;;;;;5057750;28;20200;-81
2022/11/05 11:44:39;;;;;;;0.10;0.10;;;17.00;99.90;;;;;;5055681;28;20213;-81
2022/11/05 11:47:11;;;;;;;0.10;0.10;;;17.20;99.90;;;;;;5058189;28;20180;-81
2022/11/05 11:49:41;;;;;;;0.10;0.10;;;16.80;99.90;;;;;;5048954;28;20246;-82
2022/11/05 11:52:13;;;;;;;0.10;0.10;;;16.50;99.90;;;;;;5040093;28;20199;-81
2022/11/05 11:54:39;;;;;;;0.10;0.10;;;16.50;99.90;;;;;;5036118;28;20215;-81
2022/11/05 11:57:26;;;;;;;0.10;0.10;;;16.50;99.90;;;;;;5035938;28;20193;-81
2022/11/05 11:59:53;;;;;;;0.10;0.10;;;16.60;99.90;;;;;;5047041;28;20326;-81
2022/11/05 12:02:45;;;;;;;0.10;0.10;;;16.60;99.90;;;;;;5058993;28;20189;-81
2022/11/05 12:05:15;;;;;;;0.10;0.10;;;16.40;99.90;;;;;;5032134;28;20223;-81
2022/11/05 12:08:03;;;;;;;0.10;0.10;;;16.40;99.90;;;;;;5073574;28;20273;-81
2022/11/05 12:10:56;;;;;;;0.10;0.10;;;16.60;99.90;;;;;;5057446;28;20210;-81
2022/11/05 12:13:28;;;;;;;0.10;0.10;;;16.50;99.90;;;;;;5072179;28;20237;-81
2022/11/05 12:16:18;;;;;;;0.10;0.10;;;16.50;99.90;;;;;;5066406;28;20201;-81
2022/11/05 12:19:12;;;;;;;0.10;0.10;;;16.40;99.90;;;;;;5059271;28;20184;-81
2022/11/05 12:21:53;;;;;;;0.10;0.10;;;16.40;99.90;;;;;;5056940;28;20208;-81
2022/11/05 12:24:42;;;;;;;0.10;0.10;;;16.20;99.90;;;;;;5058763;28;20230;-81
2022/11/05 12:27:30;;;;;;;0.10;0.10;;;15.90;99.90;;;;;;5059909;28;20192;-81
2022/11/05 12:30:15;;;;;;;0.10;0.10;;;15.80;99.90;;;;;;5058454;28;20190;-81
2022/11/05 12:32:47;;;;;;;0.10;0.10;;;15.30;99.90;;;;;;5074020;28;20212;-81
2022/11/05 12:35:32;;;;;;;0.10;0.10;;;15.00;99.90;;;;;;5059621;28;20203;-80
2022/11/05 12:38:25;;;;;;;0.10;0.10;;;14.70;99.90;;;;;;5061971;28;20644;-81
2022/11/05 12:40:50;;;;;;;0.10;0.10;;;14.40;99.90;;;;;;5059344;28;20191;-82
2022/11/05 12:43:19;;;;;;;0.10;0.10;;;14.40;99.90;;;;;;5073200;28;20183;-82
2022/11/05 12:46:24;;;;;;;0.10;0.10;;;14.30;99.90;;;;;;5063359;28;20684;-81
2022/11/05 12:49:05;;;;;;;0.00;0.00;;;14.20;99.90;;;;;;5063197;28;20254;-82
2022/11/05 12:51:48;;;;;;;0.10;0.10;;;14.30;99.90;;;;;;5073559;28;20232;-81
2022/11/05 12:54:24;;;;;;;0.10;0.10;;;14.20;99.90;;;;;;5079604;28;20309;-82
2022/11/05 12:56:54;;;;;;;0.10;0.10;;;14.50;99.90;;;;;;5075081;28;22852;-81
2022/11/05 12:59:36;;;;;;;0.10;0.10;;;14.50;99.90;;;;;;5064846;28;20196;-81
2022/11/05 13:02:22;;;;;;;0.10;0.10;;;14.60;99.90;;;;;;5062072;28;20647;-81
2022/11/05 13:05:04;;;;;;;0.10;0.10;;;14.60;99.90;;;;;;5062878;28;20204;-81
2022/11/05 13:07:34;;;;;;;0.10;0.10;;;14.50;99.90;;;;;;5074587;28;20194;-81
2022/11/05 13:10:14;;;;;;;0.10;0.10;;;14.40;99.90;;;;;;5062752;28;20177;-81
2022/11/05 13:12:41;;;;;;;0.10;0.10;;;14.20;99.90;;;;;;5063404;28;21232;-81
2022/11/05 13:15:20;;;;;;;0.10;0.10;;;14.10;99.90;;;;;;5062133;28;20744;-81
2022/11/05 13:18:03;;;;;;;0.00;0.00;;;14.00;99.90;;;;;;5060312;28;20178;-82
2022/11/05 13:20:33;;;;;;;0.10;0.10;;;13.80;99.90;;;;;;5058027;28;20658;-82
2022/11/05 13:23:12;;;;;;;0.10;0.10;;;13.80;99.90;;;;;;5057812;28;20277;-81
2022/11/05 13:25:43;;;;;;;0.10;0.10;;;13.80;99.90;;;;;;5061765;28;20710;-81
2022/11/05 13:28:38;;;;;;;0.10;0.10;;;13.70;99.90;;;;;;5062013;28;20714;-81
2022/11/05 13:31:11;;;;;;;0.10;0.10;;;13.70;99.90;;;;;;5043973;28;20232;-81
2022/11/05 13:33:43;;;;;;;0.10;0.10;;;13.70;99.90;;;;;;5063852;28;20239;-82
2022/11/05 13:39:20;;;;;;;0.00;0.00;;;13.70;99.90;;;;;;5061941;28;20221;-82
2022/11/05 13:42:10;;;;;;;0.10;0.10;;;13.80;99.90;;;;;;5073518;28;20179;-83
2022/11/05 13:44:44;;;;;;;0.10;0.10;;;13.80;99.90;;;;;;5063913;28;20213;-82
2022/11/05 13:47:42;;;;;;;0.10;0.10;;;13.60;99.90;;;;;;5076202;28;20189;-81
2022/11/05 13:50:42;;;;;;;0.10;0.10;;;13.50;99.90;;;;;;5071670;28;20212;-82
2022/11/05 13:53:47;;;;;;;0.07;0.07;;;13.40;99.90;;;;;;5072709;28;20274;-82